首页
METAR-TAF:

METAR-TAF

机场 :

大加那利机场

大加那利岛, 西班牙

纬度: 27-56N, 经度: 015-23W, 海拔: 23米

当前天气观测

该预报发布于28分钟前的23:30 UTC
风速11节,风向
温度 21°C
湿度 73%
气压 1018 hPa
能见度10公里或以上
多云层高于2500英尺

METAR: GCLP 192330Z 01011KT 9999 BKN025 21/16 Q1018 NOSIG

时间: 00:58 (23:58 UTC)

预报

该预报发布于3小时和58分钟前的20:00 UTC
预报有效从19日的 21点(UTC)到 20日的 21点(UTC)
风速10节,风向北转西北
能见度10公里或以上
少量云层高于2500英尺

TAF: GCLP 192000Z 1921/2021 34010KT 9999 FEW025 TX26/2015Z TN19/2005Z

超过4000个机场的气象观测和天气预报(METAR&TAF报告)。

可查询的气象台以黄色和红色小点在地图上表示。

将鼠标移到小点上方,可查看气象台名称。

然后点击查看天气观测和预报。

如需切换地图:点击带黑十字的绿色按钮放大地图;点击带横线的绿色按钮缩小地图;或者点击绿色箭头查看邻近地区的地图。


METAR-TAF: